Time;durP1;ratioP1;P1;durP2;ratioP2;P2;SDS_P1;SDS_P2;PMS_P1;PMS_P2;Temp;Humidity;BMP_temperature;BMP_pressure;BME280_temperature;BME280_humidity;BME280_pressure;Samples;Min_cycle;Max_cycle;Signal;HPM_P1;HPM_P2
2023/07/21 00:01:16;;;;;;;1999.90;999.90;;;13.90;99.90;;;;;;5028309;28;20431;-72
2023/07/21 00:03:43;;;;;;;1999.90;999.90;;;13.80;99.90;;;;;;5027554;28;20525;-73
2023/07/21 00:06:16;;;;;;;1999.90;999.90;;;13.80;99.90;;;;;;5022319;28;20521;-73
2023/07/21 00:08:43;;;;;;;1999.90;999.90;;;14.00;99.90;;;;;;5027920;28;20467;-74
2023/07/21 00:11:10;;;;;;;1999.90;999.90;;;13.90;99.90;;;;;;5027387;28;20439;-75
2023/07/21 00:13:37;;;;;;;1999.90;999.90;;;13.80;99.90;;;;;;5024017;28;20431;-73
2023/07/21 00:16:05;;;;;;;1999.90;999.90;;;13.90;99.90;;;;;;5028282;28;20428;-74
2023/07/21 00:18:32;;;;;;;1999.90;999.90;;;13.80;99.90;;;;;;5027823;28;20427;-74
2023/07/21 00:20:59;;;;;;;1999.90;999.90;;;13.70;99.90;;;;;;5027584;28;20434;-72
2023/07/21 00:23:27;;;;;;;1999.90;999.90;;;13.70;99.90;;;;;;5027281;28;20940;-72
2023/07/21 00:25:55;;;;;;;1999.90;999.90;;;13.80;99.90;;;;;;5026995;28;20492;-71
2023/07/21 00:28:23;;;;;;;1999.90;999.90;;;13.70;99.90;;;;;;5027687;28;20427;-70
2023/07/21 00:30:50;;;;;;;1999.90;999.90;;;13.70;99.90;;;;;;5026871;28;20442;-72
2023/07/21 00:33:17;;;;;;;1999.90;999.90;;;13.80;99.90;;;;;;5022617;28;20448;-71
2023/07/21 00:35:44;;;;;;;1999.90;999.90;;;13.70;99.90;;;;;;5027838;28;20927;-72
2023/07/21 00:38:11;;;;;;;1999.90;999.90;;;13.60;99.90;;;;;;5027847;28;20958;-72
2023/07/21 00:40:40;;;;;;;1999.90;999.90;;;13.40;99.90;;;;;;5025967;28;20821;-72
2023/07/21 00:43:08;;;;;;;1999.90;999.90;;;13.50;99.90;;;;;;5028223;28;20431;-72
2023/07/21 00:45:37;;;;;;;1999.90;999.90;;;13.60;99.90;;;;;;5030113;28;20457;-72
2023/07/21 00:48:07;;;;;;;1999.90;999.90;;;13.60;99.90;;;;;;5030982;28;20947;-72
2023/07/21 00:50:38;;;;;;;1999.90;999.90;;;13.80;99.90;;;;;;5031612;28;20458;-72
2023/07/21 00:53:06;;;;;;;1999.90;999.90;;;14.00;99.90;;;;;;5031786;28;20439;-71
2023/07/21 00:55:34;;;;;;;1999.90;999.90;;;13.90;99.90;;;;;;5030933;28;20439;-71
2023/07/21 00:58:02;;;;;;;1999.90;999.90;;;14.00;99.90;;;;;;5030135;28;20492;-72
2023/07/21 01:00:29;;;;;;;1999.90;999.90;;;14.00;99.90;;;;;;5030146;28;20940;-72
2023/07/21 01:02:57;;;;;;;1999.90;999.90;;;14.00;99.90;;;;;;5031320;28;20442;-70
2023/07/21 01:05:25;;;;;;;1999.90;999.90;;;14.30;99.90;;;;;;5031572;28;20470;-72
2023/07/21 01:07:52;;;;;;;1999.90;999.90;;;14.50;99.90;;;;;;5030787;28;20426;-72
2023/07/21 01:10:20;;;;;;;1999.90;999.90;;;14.60;99.90;;;;;;5030151;28;20438;-72
2023/07/21 01:12:48;;;;;;;1999.90;999.90;;;14.60;99.90;;;;;;5031317;28;20438;-71
2023/07/21 01:15:17;;;;;;;1999.90;999.90;;;14.50;99.90;;;;;;5028507;28;20434;-70
2023/07/21 01:17:44;;;;;;;1999.90;999.90;;;14.60;99.90;;;;;;5028857;28;20489;-72
2023/07/21 01:20:14;;;;;;;1999.90;999.90;;;14.70;99.90;;;;;;5031146;28;20770;-71
2023/07/21 01:22:47;;;;;;;1999.90;999.90;;;14.80;99.90;;;;;;5031047;28;20435;-73
2023/07/21 01:25:17;;;;;;;1999.90;999.90;;;14.90;99.90;;;;;;5030603;28;21050;-72
2023/07/21 01:27:46;;;;;;;1999.90;999.90;;;15.00;99.90;;;;;;5030492;28;20440;-72
2023/07/21 01:30:15;;;;;;;1999.90;999.90;;;15.10;99.90;;;;;;5030723;28;20840;-72
2023/07/21 01:32:45;;;;;;;1999.90;999.90;;;15.10;99.90;;;;;;5029916;28;20431;-72
2023/07/21 01:35:15;;;;;;;1999.90;999.90;;;15.10;99.90;;;;;;5030984;28;20924;-72
2023/07/21 01:37:44;;;;;;;1999.90;999.90;;;15.10;99.90;;;;;;5030460;28;20435;-70
2023/07/21 01:40:13;;;;;;;1999.90;999.90;;;15.20;99.90;;;;;;5028587;28;20431;-72
2023/07/21 01:45:15;;;;;;;1999.90;999.90;;;15.20;99.90;;;;;;4988146;28;20429;-72
2023/07/21 01:47:47;;;;;;;1999.90;999.90;;;15.10;99.90;;;;;;4990856;28;20807;-72
2023/07/21 01:50:16;;;;;;;1999.90;999.90;;;15.20;99.90;;;;;;4990751;28;20931;-70
2023/07/21 01:52:45;;;;;;;1999.90;999.90;;;15.30;99.90;;;;;;4989588;28;20440;-72
2023/07/21 01:55:16;;;;;;;1999.90;999.90;;;15.10;99.90;;;;;;4968999;28;20479;-71
2023/07/21 01:57:47;;;;;;;1999.90;999.90;;;15.10;99.90;;;;;;4971676;28;20521;-72
2023/07/21 02:00:16;;;;;;;1999.90;999.90;;;14.90;99.90;;;;;;4997955;23;20432;-70
2023/07/21 02:02:46;;;;;;;1999.90;999.90;;;15.00;99.90;;;;;;5008120;28;20439;-71
2023/07/21 02:05:20;;;;;;;1999.90;999.90;;;15.00;99.90;;;;;;5007261;28;20853;-72
2023/07/21 02:07:47;;;;;;;1999.90;999.90;;;15.10;99.90;;;;;;5008720;28;20943;-71
2023/07/21 02:10:14;;;;;;;1999.90;999.90;;;15.20;99.90;;;;;;5009790;28;20432;-72
2023/07/21 02:12:40;;;;;;;1999.90;999.90;;;15.20;99.90;;;;;;5005388;28;20441;-71
2023/07/21 02:15:08;;;;;;;1999.90;999.90;;;15.10;99.90;;;;;;5004229;28;20437;-72
2023/07/21 02:17:36;;;;;;;1999.90;999.90;;;15.20;99.90;;;;;;5007460;28;20881;-72
2023/07/21 02:20:08;;;;;;;1999.90;999.90;;;15.30;99.90;;;;;;4996568;28;20439;-71
2023/07/21 02:22:36;;;;;;;1999.90;999.90;;;15.40;99.90;;;;;;4998202;28;20445;-71
2023/07/21 02:25:04;;;;;;;1999.90;999.90;;;15.40;99.90;;;;;;5003491;28;21167;-71
2023/07/21 02:27:30;;;;;;;1999.90;999.90;;;15.50;99.90;;;;;;5004974;28;21029;-69
2023/07/21 02:29:57;;;;;;;1999.90;999.90;;;15.50;99.90;;;;;;5008417;28;20439;-71
2023/07/21 02:32:25;;;;;;;1999.90;999.90;;;15.40;99.90;;;;;;4994657;28;20438;-70
2023/07/21 02:34:53;;;;;;;1999.90;999.90;;;15.40;99.90;;;;;;4999395;28;20437;-68
2023/07/21 02:37:19;;;;;;;1999.90;999.90;;;15.30;99.90;;;;;;4997810;28;20468;-71
2023/07/21 02:39:46;;;;;;;1999.90;999.90;;;15.20;99.90;;;;;;5005859;28;20432;-70
2023/07/21 02:42:13;;;;;;;1999.90;999.90;;;15.20;99.90;;;;;;5005889;28;20433;-69
2023/07/21 02:44:39;;;;;;;1999.90;999.90;;;15.20;99.90;;;;;;4998714;28;20935;-70
2023/07/21 02:47:08;;;;;;;1999.90;999.90;;;15.30;99.90;;;;;;4997264;28;20441;-72
2023/07/21 02:49:35;;;;;;;1999.90;999.90;;;15.30;99.90;;;;;;5006774;28;20478;-70
2023/07/21 02:52:04;;;;;;;1999.90;999.90;;;15.30;99.90;;;;;;4999664;28;20455;-68
2023/07/21 02:54:31;;;;;;;1999.90;999.90;;;15.30;99.90;;;;;;5004697;28;20485;-72
2023/07/21 02:56:58;;;;;;;1999.90;999.90;;;15.40;99.90;;;;;;5001803;28;20952;-71
2023/07/21 02:59:26;;;;;;;1999.90;999.90;;;15.50;99.90;;;;;;4998349;28;20437;-71
2023/07/21 03:01:55;;;;;;;1999.90;999.90;;;15.60;99.90;;;;;;4995646;28;20473;-71
2023/07/21 03:04:22;;;;;;;1999.90;999.90;;;15.50;99.90;;;;;;5008375;28;20839;-70
2023/07/21 03:06:49;;;;;;;1999.90;999.90;;;15.60;99.90;;;;;;5008048;28;20432;-71
2023/07/21 03:09:17;;;;;;;1999.90;999.90;;;15.80;99.90;;;;;;5005731;28;20436;-69
2023/07/21 03:11:44;;;;;;;1999.90;999.90;;;15.60;99.90;;;;;;5008357;28;20442;-71
2023/07/21 03:14:11;;;;;;;1999.90;999.90;;;15.60;99.90;;;;;;5008418;28;20934;-71
2023/07/21 03:16:38;;;;;;;1999.90;999.90;;;15.70;99.90;;;;;;5004467;28;20444;-71
2023/07/21 03:19:05;;;;;;;1999.90;999.90;;;15.80;99.90;;;;;;5006110;28;20440;-69
2023/07/21 03:21:31;;;;;;;1999.90;999.90;;;15.90;99.90;;;;;;5008105;28;20810;-71
2023/07/21 03:23:58;;;;;;;1999.90;999.90;;;15.80;99.90;;;;;;5008190;28;20444;-72
2023/07/21 03:26:27;;;;;;;1999.90;999.90;;;15.90;99.90;;;;;;5008442;28;20436;-71
2023/07/21 03:28:55;;;;;;;1999.90;999.90;;;15.90;99.90;;;;;;5006159;28;20486;-71
2023/07/21 03:31:22;;;;;;;1999.90;999.90;;;15.80;99.90;;;;;;5008098;28;20432;-68
2023/07/21 03:33:49;;;;;;;1999.90;999.90;;;15.80;99.90;;;;;;5007836;28;20568;-72
2023/07/21 03:36:16;;;;;;;1999.90;999.90;;;15.80;99.90;;;;;;5007451;28;20436;-70
2023/07/21 03:38:43;;;;;;;1999.90;999.90;;;15.70;99.90;;;;;;5007387;28;20532;-71
2023/07/21 03:41:10;;;;;;;1999.90;999.90;;;15.80;99.90;;;;;;5007991;28;20783;-71
2023/07/21 03:43:38;;;;;;;1999.90;999.90;;;15.60;99.90;;;;;;5007499;28;20943;-71
2023/07/21 03:46:07;;;;;;;1999.90;999.90;;;15.80;99.90;;;;;;5006635;28;20432;-73
2023/07/21 03:48:37;;;;;;;1999.90;999.90;;;15.70;99.90;;;;;;5003513;28;20864;-73
2023/07/21 03:51:05;;;;;;;1999.90;999.90;;;15.80;99.90;;;;;;5005218;28;20921;-73
2023/07/21 03:53:33;;;;;;;1999.90;999.90;;;15.80;99.90;;;;;;5007940;28;20553;-73
2023/07/21 03:55:59;;;;;;;1999.90;999.90;;;15.90;99.90;;;;;;5006775;28;20921;-73
2023/07/21 03:58:26;;;;;;;1999.90;999.90;;;15.80;99.90;;;;;;5007600;28;20901;-73
2023/07/21 04:00:55;;;;;;;1999.90;999.90;;;15.90;99.90;;;;;;5007109;28;20475;-73
2023/07/21 04:03:24;;;;;;;1999.90;999.90;;;16.10;99.90;;;;;;5006339;28;20905;-73
2023/07/21 04:05:51;;;;;;;1999.90;999.90;;;16.20;99.90;;;;;;5000825;28;20464;-73
2023/07/21 04:08:18;;;;;;;1999.90;999.90;;;16.20;99.90;;;;;;5007579;28;20444;-73
2023/07/21 04:10:45;;;;;;;1999.90;999.90;;;16.00;99.90;;;;;;5005012;28;20477;-70
2023/07/21 04:13:11;;;;;;;1999.90;999.90;;;15.80;99.90;;;;;;5006540;28;20437;-70
2023/07/21 04:15:38;;;;;;;1999.90;999.90;;;15.80;99.90;;;;;;5008631;28;20455;-72
2023/07/21 04:18:06;;;;;;;1999.90;999.90;;;15.80;99.90;;;;;;5009587;28;20977;-71
2023/07/21 04:20:33;;;;;;;1999.90;999.90;;;15.60;99.90;;;;;;5010397;28;20439;-69
2023/07/21 04:23:00;;;;;;;1999.90;999.90;;;15.70;99.90;;;;;;5006239;28;20527;-70
2023/07/21 04:25:27;;;;;;;1999.90;999.90;;;15.60;99.90;;;;;;5011800;28;20503;-71
2023/07/21 04:27:54;;;;;;;1999.90;999.90;;;15.70;99.90;;;;;;5006960;28;20451;-70
2023/07/21 04:30:22;;;;;;;1999.90;999.90;;;15.70;99.90;;;;;;5010236;28;20513;-68
2023/07/21 04:32:48;;;;;;;1999.90;999.90;;;15.80;99.90;;;;;;5009728;28;20471;-68
2023/07/21 04:35:17;;;;;;;1999.90;999.90;;;15.70;99.90;;;;;;5003943;28;20432;-69
2023/07/21 04:37:43;;;;;;;1999.90;999.90;;;15.70;99.90;;;;;;5011195;28;20429;-69
2023/07/21 04:40:11;;;;;;;1999.90;999.90;;;15.60;99.90;;;;;;5008778;28;20966;-71
2023/07/21 04:42:38;;;;;;;1999.90;999.90;;;15.80;99.90;;;;;;5008930;28;20551;-69
2023/07/21 04:45:11;;;;;;;1999.90;999.90;;;15.80;99.90;;;;;;5011637;28;20468;-69
2023/07/21 04:47:39;;;;;;;1999.90;999.90;;;15.90;99.90;;;;;;5011486;28;20491;-71
2023/07/21 04:50:07;;;;;;;1999.90;999.90;;;16.00;99.90;;;;;;5010039;28;20471;-69
2023/07/21 04:52:36;;;;;;;1999.90;999.90;;;16.00;99.90;;;;;;5010756;28;20439;-69
2023/07/21 04:55:03;;;;;;;1999.90;999.90;;;16.00;99.90;;;;;;5009698;28;20522;-71
2023/07/21 04:57:31;;;;;;;1999.90;999.90;;;15.80;99.90;;;;;;5009469;28;20439;-71
2023/07/21 04:59:58;;;;;;;1999.90;999.90;;;15.80;99.90;;;;;;5010654;28;20512;-69
2023/07/21 05:02:26;;;;;;;1999.90;999.90;;;15.90;99.90;;;;;;5010781;28;20922;-71
2023/07/21 05:04:53;;;;;;;1999.90;999.90;;;16.00;99.90;;;;;;5009358;28;20444;-71
2023/07/21 05:07:20;;;;;;;1999.90;999.90;;;16.10;99.90;;;;;;5009597;28;20494;-71
2023/07/21 05:09:48;;;;;;;1999.90;999.90;;;16.10;99.90;;;;;;5007818;28;20435;-71
2023/07/21 05:12:14;;;;;;;1999.90;999.90;;;16.00;99.90;;;;;;5000559;28;20436;-69
2023/07/21 05:14:41;;;;;;;1999.90;999.90;;;15.90;99.90;;;;;;5010350;28;20443;-71
2023/07/21 05:17:08;;;;;;;1999.90;999.90;;;15.80;99.90;;;;;;5010669;28;20518;-72
2023/07/21 05:19:34;;;;;;;1999.90;999.90;;;15.80;99.90;;;;;;5009677;28;20483;-70
2023/07/21 05:22:02;;;;;;;1999.90;999.90;;;15.90;99.90;;;;;;5010682;28;20440;-71
2023/07/21 05:24:29;;;;;;;1999.90;999.90;;;15.80;99.90;;;;;;5009673;28;20461;-71
2023/07/21 05:26:57;;;;;;;1999.90;999.90;;;15.80;99.90;;;;;;5010066;28;20440;-70
2023/07/21 05:29:23;;;;;;;1999.90;999.90;;;15.70;99.90;;;;;;5009252;28;20436;-70
2023/07/21 05:31:52;;;;;;;1999.90;999.90;;;15.80;99.90;;;;;;5006059;28;20945;-71
2023/07/21 05:34:18;;;;;;;1999.90;999.90;;;15.60;99.90;;;;;;5007509;28;20432;-70
2023/07/21 05:36:45;;;;;;;1999.90;999.90;;;15.60;99.90;;;;;;5009086;28;20740;-71
2023/07/21 05:39:12;;;;;;;1999.90;999.90;;;15.70;99.90;;;;;;5010271;28;20559;-72
2023/07/21 05:41:38;;;;;;;1999.90;999.90;;;15.80;99.90;;;;;;5009214;28;20463;-71
2023/07/21 05:44:06;;;;;;;1999.90;999.90;;;16.10;99.90;;;;;;5008843;28;20444;-71
2023/07/21 05:46:33;;;;;;;1999.90;999.90;;;16.00;99.90;;;;;;5010252;28;20440;-72
2023/07/21 05:49:00;;;;;;;1999.90;999.90;;;16.10;99.90;;;;;;5009310;28;20455;-72
2023/07/21 05:51:26;;;;;;;1999.90;999.90;;;16.00;99.90;;;;;;5007563;28;20436;-71
2023/07/21 05:53:53;;;;;;;1999.90;999.90;;;16.00;99.90;;;;;;5007327;28;20455;-71
2023/07/21 05:56:20;;;;;;;1999.90;999.90;;;15.90;99.90;;;;;;5004232;28;20524;-68
2023/07/21 05:58:46;;;;;;;1999.90;999.90;;;16.10;99.90;;;;;;5000754;28;20428;-70
2023/07/21 06:01:14;;;;;;;1999.90;999.90;;;16.00;99.90;;;;;;5000765;28;20441;-71
2023/07/21 06:03:41;;;;;;;1999.90;999.90;;;16.00;99.90;;;;;;5005920;28;20444;-72
2023/07/21 06:06:09;;;;;;;1999.90;999.90;;;16.00;99.90;;;;;;5003817;28;20442;-71
2023/07/21 06:08:35;;;;;;;1999.90;999.90;;;16.10;99.90;;;;;;5006187;28;20440;-71
2023/07/21 06:11:02;;;;;;;1999.90;999.90;;;16.20;99.90;;;;;;5000185;28;20437;-71
2023/07/21 06:13:29;;;;;;;1999.90;999.90;;;16.40;99.90;;;;;;4995693;28;20507;-70
2023/07/21 06:15:56;;;;;;;1999.90;999.90;;;16.60;99.90;;;;;;5008430;28;20431;-70
2023/07/21 06:18:24;;;;;;;1999.90;999.90;;;16.50;99.90;;;;;;5006302;28;20436;-70
2023/07/21 06:20:52;;;;;;;1999.90;999.90;;;16.70;99.90;;;;;;4999908;28;20440;-71
2023/07/21 06:23:19;;;;;;;1999.90;999.90;;;17.00;99.90;;;;;;5004362;28;20468;-71
2023/07/21 06:25:46;;;;;;;1999.90;999.90;;;17.20;99.90;;;;;;5007441;28;20984;-71
2023/07/21 06:28:13;;;;;;;1999.90;999.90;;;17.20;99.90;;;;;;5006982;28;20435;-70
2023/07/21 06:30:40;;;;;;;1999.90;999.90;;;17.30;99.90;;;;;;5000990;28;21131;-69
2023/07/21 06:33:07;;;;;;;1999.90;999.90;;;17.00;99.90;;;;;;5000834;28;20433;-72
2023/07/21 06:35:35;;;;;;;1999.90;999.90;;;17.10;99.90;;;;;;5002181;28;20438;-70
2023/07/21 06:38:03;;;;;;;1999.90;999.90;;;17.10;99.90;;;;;;5009033;28;20448;-72
2023/07/21 06:40:31;;;;;;;1999.90;999.90;;;17.20;99.90;;;;;;5002852;28;20503;-71
2023/07/21 06:42:58;;;;;;;1999.90;999.90;;;17.30;99.90;;;;;;5004738;28;20444;-69
2023/07/21 06:45:25;;;;;;;1999.90;999.90;;;17.30;99.90;;;;;;5008207;28;20432;-71
2023/07/21 06:47:52;;;;;;;1999.90;999.90;;;17.50;99.90;;;;;;5000820;28;20433;-71
2023/07/21 06:50:19;;;;;;;1999.90;999.90;;;17.70;99.90;;;;;;5006657;28;20436;-71
2023/07/21 06:52:47;;;;;;;1999.90;999.90;;;17.90;99.90;;;;;;5009033;28;20437;-72
2023/07/21 06:55:14;;;;;;;1999.90;999.90;;;18.20;99.90;;;;;;5008530;28;20450;-69
2023/07/21 06:57:41;;;;;;;1999.90;999.90;;;18.30;99.90;;;;;;5004202;28;20446;-70
2023/07/21 07:00:12;;;;;;;1999.90;999.90;;;18.40;99.90;;;;;;5006766;28;20439;-70
2023/07/21 07:02:39;;;;;;;1999.90;999.90;;;18.40;99.90;;;;;;5008433;28;20436;-71
2023/07/21 07:05:06;;;;;;;1999.90;999.90;;;18.30;99.90;;;;;;5007550;28;20922;-71
2023/07/21 07:07:33;;;;;;;1999.90;999.90;;;18.30;99.90;;;;;;5007458;28;20428;-71
2023/07/21 07:10:01;;;;;;;1999.90;999.90;;;18.10;99.90;;;;;;5001621;28;20448;-71
2023/07/21 07:12:27;;;;;;;1999.90;999.90;;;18.10;99.90;;;;;;5001089;28;20449;-71
2023/07/21 07:14:54;;;;;;;1999.90;999.90;;;18.20;99.90;;;;;;5007495;28;20440;-71
2023/07/21 07:17:21;;;;;;;1999.90;999.90;;;18.50;99.90;;;;;;5007480;28;20446;-71
2023/07/21 07:19:48;;;;;;;1999.90;999.90;;;18.60;99.90;;;;;;5006442;28;20432;-70
2023/07/21 07:22:15;;;;;;;1999.90;999.90;;;18.90;99.90;;;;;;5004925;28;20439;-71
2023/07/21 07:24:41;;;;;;;1999.90;999.90;;;18.90;99.90;;;;;;4999017;28;20445;-68
2023/07/21 07:27:09;;;;;;;1999.90;999.90;;;18.90;99.90;;;;;;5001182;28;20443;-72
2023/07/21 07:29:36;;;;;;;1999.90;999.90;;;19.10;99.90;;;;;;5008837;28;20945;-72
2023/07/21 07:32:03;;;;;;;1999.90;999.90;;;19.10;99.90;;;;;;5007361;28;20444;-70
2023/07/21 07:34:29;;;;;;;1999.90;999.90;;;19.20;99.90;;;;;;4996871;28;20441;-71
2023/07/21 07:36:58;;;;;;;1999.90;999.90;;;19.20;99.90;;;;;;5006921;28;20447;-73
2023/07/21 07:39:25;;;;;;;1999.90;999.90;;;19.40;99.90;;;;;;5006054;28;20962;-71
2023/07/21 07:41:52;;;;;;;1999.90;999.90;;;19.40;99.90;;;;;;5007074;28;20436;-71
2023/07/21 07:44:20;;;;;;;1999.90;999.90;;;19.50;99.90;;;;;;5007168;28;20440;-71
2023/07/21 07:46:47;;;;;;;1999.90;999.90;;;19.40;99.90;;;;;;5007700;28;20439;-69
2023/07/21 07:49:13;;;;;;;1999.90;999.90;;;19.50;99.90;;;;;;5008253;28;20498;-71
2023/07/21 07:51:40;;;;;;;1999.90;999.90;;;19.50;99.90;;;;;;5007571;28;20432;-71
2023/07/21 07:54:07;;;;;;;1999.90;999.90;;;19.50;99.90;;;;;;5007827;28;20925;-73
2023/07/21 07:56:34;;;;;;;1999.90;999.90;;;19.50;99.90;;;;;;5007444;28;20437;-70
2023/07/21 07:59:01;;;;;;;1999.90;999.90;;;19.70;99.90;;;;;;5008461;28;20433;-71
2023/07/21 08:01:29;;;;;;;1999.90;999.90;;;19.50;99.90;;;;;;5007310;28;20437;-70
2023/07/21 08:06:25;;;;;;;1999.90;999.90;;;19.80;99.90;;;;;;5034232;28;20850;-73
2023/07/21 08:08:52;;;;;;;1999.90;999.90;;;20.20;99.90;;;;;;5047593;28;20429;-72
2023/07/21 08:11:19;;;;;;;1999.90;999.90;;;20.20;99.90;;;;;;5046036;28;20441;-73
2023/07/21 08:13:45;;;;;;;1999.90;999.90;;;20.40;99.90;;;;;;5041921;28;20908;-70
2023/07/21 08:16:14;;;;;;;1999.90;999.90;;;20.80;99.90;;;;;;5027007;28;20431;-73
2023/07/21 08:18:43;;;;;;;1999.90;999.90;;;21.30;99.90;;;;;;5027989;28;20480;-73
2023/07/21 08:21:20;;;;;;;1999.90;999.90;;;21.40;99.90;;;;;;5028774;28;20427;-73
2023/07/21 08:23:48;;;;;;;1999.90;999.90;;;21.20;99.90;;;;;;5028223;28;20439;-73
2023/07/21 08:26:15;;;;;;;1999.90;999.90;;;21.20;99.90;;;;;;5027285;28;20493;-72
2023/07/21 08:28:42;;;;;;;1999.90;999.90;;;21.10;99.90;;;;;;5028055;28;20435;-73
2023/07/21 08:31:09;;;;;;;1999.90;999.90;;;21.20;99.90;;;;;;5028518;28;20434;-73
2023/07/21 08:33:35;;;;;;;1999.90;999.90;;;21.10;99.90;;;;;;5027887;28;20435;-73
2023/07/21 08:36:05;;;;;;;1999.90;999.90;;;21.00;99.90;;;;;;5027459;28;20435;-72
2023/07/21 08:38:33;;;;;;;1999.90;999.90;;;20.80;99.90;;;;;;5028265;28;20450;-73
2023/07/21 08:41:04;;;;;;;1999.90;999.90;;;20.70;99.90;;;;;;5028345;28;20466;-73
2023/07/21 08:43:31;;;;;;;1999.90;999.90;;;20.60;99.90;;;;;;5028529;28;20435;-73
2023/07/21 08:46:00;;;;;;;1999.90;999.90;;;20.50;99.90;;;;;;5024473;28;20438;-74
2023/07/21 08:48:27;;;;;;;1999.90;999.90;;;20.70;99.90;;;;;;5023337;28;20469;-71
2023/07/21 08:50:55;;;;;;;1999.90;999.90;;;20.90;99.90;;;;;;5027483;28;20442;-75
2023/07/21 08:53:25;;;;;;;1999.90;999.90;;;21.10;99.90;;;;;;5028289;28;20473;-74
2023/07/21 08:55:54;;;;;;;1999.90;999.90;;;20.90;99.90;;;;;;5024248;28;20868;-73
2023/07/21 08:58:21;;;;;;;1999.90;999.90;;;20.80;99.90;;;;;;5023509;28;20953;-73
2023/07/21 09:00:49;;;;;;;1999.90;999.90;;;20.50;99.90;;;;;;5030224;28;20783;-73
2023/07/21 09:03:22;;;;;;;1999.90;999.90;;;20.40;99.90;;;;;;5028011;28;20443;-73
2023/07/21 09:05:49;;;;;;;1999.90;999.90;;;20.40;99.90;;;;;;5041115;28;20514;-73
2023/07/21 09:08:21;;;;;;;1999.90;999.90;;;20.60;99.90;;;;;;5053456;28;20504;-73
2023/07/21 09:10:49;;;;;;;1999.90;999.90;;;20.60;99.90;;;;;;5053381;28;20461;-73
2023/07/21 09:13:17;;;;;;;1999.90;999.90;;;20.70;99.90;;;;;;5049390;28;21202;-72
2023/07/21 09:15:51;;;;;;;1999.90;999.90;;;20.70;99.90;;;;;;5042079;28;20419;-71
2023/07/21 09:18:18;;;;;;;1999.90;999.90;;;20.70;99.90;;;;;;5053082;28;20445;-72
2023/07/21 09:20:46;;;;;;;1999.90;999.90;;;20.90;99.90;;;;;;5053735;28;20413;-72
2023/07/21 09:23:14;;;;;;;1999.90;999.90;;;20.80;99.90;;;;;;5050389;28;20445;-72
2023/07/21 09:25:54;;;;;;;1999.90;999.90;;;20.80;99.90;;;;;;5042485;28;20799;-73
2023/07/21 09:28:21;;;;;;;1999.90;999.90;;;21.00;99.90;;;;;;5013910;28;20413;-73
2023/07/21 09:30:53;;;;;;;1999.90;999.90;;;21.00;99.90;;;;;;5018835;28;20472;-74
2023/07/21 09:33:25;;;;;;;1999.90;999.90;;;21.00;99.90;;;;;;5029315;28;20442;-73
2023/07/21 09:36:03;;;;;;;1999.90;999.90;;;21.30;99.90;;;;;;5029895;28;20872;-72
2023/07/21 09:38:30;;;;;;;1999.90;999.90;;;21.70;99.90;;;;;;5030421;28;20933;-73
2023/07/21 09:41:02;;;;;;;1999.90;999.90;;;21.50;99.90;;;;;;5029309;28;20758;-74
2023/07/21 09:43:29;;;;;;;1999.90;999.90;;;21.60;99.90;;;;;;5028925;28;20451;-75
2023/07/21 09:45:58;;;;;;;1999.90;999.90;;;21.90;99.90;;;;;;5028985;28;20600;-73
2023/07/21 09:48:26;;;;;;;1999.90;999.90;;;21.90;99.90;;;;;;5026596;28;20853;-73
2023/07/21 09:50:57;;;;;;;1999.90;999.90;;;22.10;99.90;;;;;;5030461;28;20526;-77
2023/07/21 09:53:25;;;;;;;1999.90;999.90;;;22.20;99.90;;;;;;5028624;28;20926;-71
2023/07/21 09:55:55;;;;;;;1999.90;999.90;;;22.30;99.90;;;;;;5029739;28;20961;-70
2023/07/21 09:58:26;;;;;;;1999.90;999.90;;;22.70;99.90;;;;;;5030664;28;20434;-73
2023/07/21 10:00:54;;;;;;;1999.90;999.90;;;23.20;99.90;;;;;;5029859;28;20935;-73
2023/07/21 10:03:22;;;;;;;1999.90;999.90;;;23.30;99.90;;;;;;5025215;28;20434;-73
2023/07/21 10:05:49;;;;;;;1999.90;999.90;;;23.40;99.90;;;;;;5031709;28;20446;-71
2023/07/21 10:08:16;;;;;;;1999.90;999.90;;;23.70;99.90;;;;;;5032314;28;20804;-75
2023/07/21 10:10:43;;;;;;;1999.90;999.90;;;23.50;99.90;;;;;;5032105;28;20427;-75
2023/07/21 10:13:12;;;;;;;1999.90;999.90;;;23.30;99.90;;;;;;5029142;28;20506;-71
2023/07/21 10:15:40;;;;;;;1999.90;999.90;;;23.40;99.90;;;;;;5029129;28;20430;-74
2023/07/21 10:18:10;;;;;;;1999.90;999.90;;;23.40;99.90;;;;;;5030249;28;20462;-71
2023/07/21 10:20:42;;;;;;;1999.90;999.90;;;24.00;99.70;;;;;;5030375;28;20481;-74
2023/07/21 10:23:10;;;;;;;1999.90;999.90;;;23.90;99.60;;;;;;5024801;28;20466;-74
2023/07/21 10:25:59;;;;;;;1999.90;999.90;;;23.90;99.10;;;;;;5030071;28;20521;-72
2023/07/21 10:28:33;;;;;;;1999.90;999.90;;;23.70;99.10;;;;;;5024541;28;20461;-73
2023/07/21 10:31:36;;;;;;;1999.90;999.90;;;23.90;99.10;;;;;;5030298;28;20438;-74
2023/07/21 10:34:04;;;;;;;1999.90;999.90;;;24.20;98.80;;;;;;5027656;28;20437;-74
2023/07/21 10:36:44;;;;;;;1999.90;999.90;;;24.80;98.90;;;;;;5030026;28;20431;-73
2023/07/21 10:39:12;;;;;;;1999.90;999.90;;;24.30;98.20;;;;;;5028979;28;20435;-73
2023/07/21 10:41:39;;;;;;;1999.90;999.90;;;24.30;98.20;;;;;;5030138;28;20424;-70
2023/07/21 10:44:07;;;;;;;1999.90;999.90;;;24.40;98.30;;;;;;5028041;28;20438;-73
2023/07/21 10:46:39;;;;;;;1999.90;999.90;;;24.10;98.00;;;;;;5026741;28;20539;-73
2023/07/21 10:49:06;;;;;;;1999.90;999.90;;;24.40;98.20;;;;;;5029829;28;20546;-73
2023/07/21 10:51:32;;;;;;;1999.90;999.90;;;24.60;97.90;;;;;;5029657;28;20427;-74
2023/07/21 10:53:59;;;;;;;1999.90;999.90;;;25.00;97.70;;;;;;5028161;28;20434;-72
2023/07/21 10:56:27;;;;;;;1999.90;999.90;;;25.20;96.90;;;;;;5028874;28;20435;-73
2023/07/21 10:58:54;;;;;;;1999.90;999.90;;;25.60;96.30;;;;;;5027338;28;20535;-73
2023/07/21 11:01:21;;;;;;;1999.90;999.90;;;25.50;96.10;;;;;;5028528;28;21086;-73
2023/07/21 11:03:49;;;;;;;1999.90;999.90;;;25.30;96.30;;;;;;5028420;28;20438;-70
2023/07/21 11:06:17;;;;;;;1999.90;999.90;;;25.50;95.70;;;;;;5024623;28;20431;-72
2023/07/21 11:08:44;;;;;;;1999.90;999.90;;;25.50;95.30;;;;;;5029238;28;20437;-73
2023/07/21 11:11:11;;;;;;;1999.90;999.90;;;25.30;95.90;;;;;;5022996;28;21001;-73
2023/07/21 11:13:39;;;;;;;1999.90;999.90;;;25.30;95.70;;;;;;5027904;28;20934;-74
2023/07/21 11:16:05;;;;;;;1999.90;999.90;;;25.10;96.20;;;;;;5028013;28;20474;-75
2023/07/21 11:18:32;;;;;;;1999.90;999.90;;;24.90;96.40;;;;;;5028572;28;20434;-74
2023/07/21 11:21:00;;;;;;;1999.90;999.90;;;24.90;96.50;;;;;;5027740;28;20443;-73
2023/07/21 11:23:27;;;;;;;1999.90;999.90;;;24.50;97.20;;;;;;5028751;28;20438;-73
2023/07/21 11:26:06;;;;;;;1999.90;999.90;;;24.40;97.40;;;;;;5026736;28;20485;-75
2023/07/21 11:28:33;;;;;;;1999.90;999.90;;;24.70;98.30;;;;;;5023144;28;20439;-73
2023/07/21 11:31:01;;;;;;;1999.90;999.90;;;24.90;98.20;;;;;;5028793;28;20785;-75
2023/07/21 11:33:43;;;;;;;1999.90;999.90;;;25.20;97.60;;;;;;5028838;28;20423;-73
2023/07/21 11:36:16;;;;;;;1999.90;999.90;;;25.10;97.40;;;;;;5026970;28;20443;-70
2023/07/21 11:38:55;;;;;;;1999.90;999.90;;;25.30;97.00;;;;;;5028502;28;20469;-73
2023/07/21 11:41:33;;;;;;;1999.90;999.90;;;25.20;96.20;;;;;;5028274;28;20963;-72
2023/07/21 11:44:00;;;;;;;1999.90;999.90;;;24.90;96.80;;;;;;5025067;28;20938;-71
2023/07/21 11:46:26;;;;;;;1999.90;999.90;;;24.30;97.40;;;;;;5028585;28;20446;-73
2023/07/21 11:48:54;;;;;;;1999.90;999.90;;;23.90;98.30;;;;;;5028448;28;20488;-75
2023/07/21 11:51:23;;;;;;;1999.90;999.90;;;23.80;98.20;;;;;;5025680;28;20793;-73
2023/07/21 11:53:50;;;;;;;1999.90;999.90;;;23.60;98.70;;;;;;5027059;28;20434;-73
2023/07/21 11:56:17;;;;;;;1999.90;999.90;;;23.70;99.30;;;;;;5028961;28;20450;-73
2023/07/21 11:58:44;;;;;;;1999.90;999.90;;;23.70;99.80;;;;;;5030083;28;20430;-72
2023/07/21 12:01:11;;;;;;;1999.90;999.90;;;23.60;99.10;;;;;;5033292;28;20440;-74
2023/07/21 12:03:40;;;;;;;1999.90;999.90;;;23.50;99.00;;;;;;5027194;28;20431;-74
2023/07/21 12:06:09;;;;;;;1999.90;999.90;;;23.60;99.30;;;;;;5028319;28;20449;-72
2023/07/21 12:08:37;;;;;;;1999.90;999.90;;;23.80;98.60;;;;;;5026729;28;21274;-73